Time;durP1;ratioP1;P1;durP2;ratioP2;P2;SDS_P1;SDS_P2;PMS_P1;PMS_P2;Temp;Humidity;BMP_temperature;BMP_pressure;BME280_temperature;BME280_humidity;BME280_pressure;Samples;Min_cycle;Max_cycle;Signal;HPM_P1;HPM_P2
2021/03/14 00:01:04;;;;;;;8.17;2.33;;;4.50;99.90;;;;;;4997171;28;20197;-53
2021/03/14 00:03:30;;;;;;;8.17;2.00;;;4.50;99.90;;;;;;5009598;28;20177;-54
2021/03/14 00:05:57;;;;;;;8.60;1.60;;;4.60;99.90;;;;;;4975694;28;20209;-53
2021/03/14 00:08:26;;;;;;;8.23;2.33;;;4.50;99.90;;;;;;4987497;28;20207;-53
2021/03/14 00:10:55;;;;;;;7.47;2.50;;;4.50;99.90;;;;;;5004011;28;20181;-48
2021/03/14 00:13:23;;;;;;;7.20;2.20;;;4.50;99.90;;;;;;4994903;28;20208;-53
2021/03/14 00:15:50;;;;;;;12.70;2.27;;;4.50;99.90;;;;;;5002173;28;20218;-48
2021/03/14 00:18:17;;;;;;;6.23;1.80;;;4.50;99.90;;;;;;5004294;28;20173;-52
2021/03/14 00:20:43;;;;;;;10.10;1.90;;;4.50;99.90;;;;;;5001406;28;20169;-52
2021/03/14 00:23:08;;;;;;;9.77;1.90;;;4.50;99.90;;;;;;4989670;28;20199;-51
2021/03/14 00:25:34;;;;;;;10.27;2.13;;;4.50;99.90;;;;;;4994670;28;20181;-50
2021/03/14 00:28:00;;;;;;;8.07;1.73;;;4.50;99.90;;;;;;4991824;28;20196;-48
2021/03/14 00:30:27;;;;;;;5.00;1.50;;;4.50;99.90;;;;;;4999915;28;20188;-55
2021/03/14 00:32:53;;;;;;;11.70;2.27;;;4.50;99.90;;;;;;5007610;28;20318;-49
2021/03/14 00:35:19;;;;;;;5.90;1.80;;;4.50;99.90;;;;;;5006636;28;20287;-56
2021/03/14 00:37:45;;;;;;;11.40;2.57;;;4.50;99.90;;;;;;4989528;28;20232;-48
2021/03/14 00:40:11;;;;;;;7.43;1.93;;;4.50;99.90;;;;;;4993355;28;20557;-52
2021/03/14 00:42:38;;;;;;;11.70;1.67;;;4.50;99.90;;;;;;4983242;28;20174;-52
2021/03/14 00:45:05;;;;;;;5.50;1.37;;;4.50;99.90;;;;;;4998305;28;20207;-53
2021/03/14 00:47:31;;;;;;;2.63;1.43;;;4.50;99.90;;;;;;5004040;28;20292;-53
2021/03/14 00:49:57;;;;;;;6.23;1.30;;;4.50;99.90;;;;;;5005595;28;20208;-52
2021/03/14 00:52:22;;;;;;;9.00;1.40;;;4.50;99.90;;;;;;4986388;28;20227;-51
2021/03/14 00:54:50;;;;;;;1.70;0.73;;;4.40;99.90;;;;;;4990307;28;20204;-50
2021/03/14 00:57:16;;;;;;;1.10;0.80;;;4.40;99.90;;;;;;5001975;28;20696;-55
2021/03/14 00:59:41;;;;;;;4.30;1.07;;;4.40;99.90;;;;;;4984187;28;20291;-54
2021/03/14 01:02:07;;;;;;;1.23;0.70;;;4.40;99.90;;;;;;5019730;28;20177;-53
2021/03/14 01:04:33;;;;;;;3.37;0.60;;;4.40;99.90;;;;;;4999925;28;20193;-52
2021/03/14 01:06:58;;;;;;;3.40;1.03;;;4.40;99.90;;;;;;5005570;28;20200;-50
2021/03/14 01:09:24;;;;;;;1.90;1.23;;;4.40;99.90;;;;;;4983604;28;20181;-57
2021/03/14 01:11:50;;;;;;;6.73;1.83;;;4.40;99.90;;;;;;4999227;28;20250;-50
2021/03/14 01:14:26;;;;;;;3.90;1.00;;;4.40;99.90;;;;;;4999171;28;20195;-53
2021/03/14 01:17:08;;;;;;;2.17;0.80;;;4.40;99.90;;;;;;4993818;28;20251;-54
2021/03/14 01:19:34;;;;;;;3.97;1.10;;;4.40;99.90;;;;;;5000139;28;20165;-47
2021/03/14 01:21:59;;;;;;;2.43;0.90;;;4.40;99.90;;;;;;5005292;28;20173;-51
2021/03/14 01:24:25;;;;;;;3.17;0.93;;;4.40;99.90;;;;;;4977992;28;20196;-51
2021/03/14 01:26:51;;;;;;;0.90;0.67;;;4.40;99.90;;;;;;4991772;28;20193;-48
2021/03/14 01:29:16;;;;;;;2.87;1.43;;;4.40;99.90;;;;;;4982101;28;20639;-50
2021/03/14 01:31:42;;;;;;;2.63;0.90;;;4.40;99.90;;;;;;4992104;28;20189;-50
2021/03/14 01:34:07;;;;;;;1.30;0.77;;;4.40;99.90;;;;;;5004293;28;20657;-48
2021/03/14 01:36:33;;;;;;;2.20;0.90;;;4.50;99.90;;;;;;4994618;28;21009;-48
2021/03/14 01:38:59;;;;;;;2.43;0.87;;;4.50;99.90;;;;;;5002612;28;20316;-49
2021/03/14 01:41:24;;;;;;;2.73;0.80;;;4.50;99.90;;;;;;4985903;28;20194;-50
2021/03/14 01:43:50;;;;;;;2.87;1.00;;;4.50;99.90;;;;;;4986177;28;20216;-49
2021/03/14 01:46:16;;;;;;;2.13;0.80;;;4.50;99.90;;;;;;4988935;28;20588;-56
2021/03/14 01:48:42;;;;;;;2.43;0.90;;;4.50;99.90;;;;;;5001352;28;20322;-47
2021/03/14 01:51:07;;;;;;;1.83;0.90;;;4.50;99.90;;;;;;5007668;28;20642;-52
2021/03/14 01:53:33;;;;;;;1.97;1.27;;;4.50;99.90;;;;;;4996078;28;20191;-52
2021/03/14 01:56:00;;;;;;;7.73;1.80;;;4.50;99.90;;;;;;4987458;28;20217;-52
2021/03/14 01:58:26;;;;;;;2.10;1.50;;;4.50;99.90;;;;;;4990784;28;20537;-53
2021/03/14 02:00:52;;;;;;;2.20;1.27;;;4.50;99.90;;;;;;5004168;28;20180;-50
2021/03/14 02:03:20;;;;;;;3.03;1.70;;;4.40;99.90;;;;;;4988969;28;20192;-53
2021/03/14 02:05:45;;;;;;;5.13;1.70;;;4.40;99.90;;;;;;4995254;28;20200;-56
2021/03/14 02:08:12;;;;;;;4.33;1.70;;;4.40;99.90;;;;;;5004897;28;20172;-49
2021/03/14 02:10:37;;;;;;;1.53;1.43;;;4.30;99.90;;;;;;4980016;28;20317;-54
2021/03/14 02:13:15;;;;;;;2.13;1.40;;;4.30;99.90;;;;;;5001345;28;20252;-49
2021/03/14 02:15:47;;;;;;;3.77;1.47;;;4.30;99.90;;;;;;4997711;28;20207;-52
2021/03/14 02:18:14;;;;;;;2.17;1.33;;;4.30;99.90;;;;;;4997226;28;20658;-51
2021/03/14 02:20:41;;;;;;;3.50;1.90;;;4.30;99.90;;;;;;4992385;28;20272;-50
2021/03/14 02:23:13;;;;;;;4.87;1.90;;;4.30;99.90;;;;;;4984166;28;20192;-50
2021/03/14 02:25:46;;;;;;;4.20;2.00;;;4.30;99.90;;;;;;4981374;28;20169;-49
2021/03/14 02:28:13;;;;;;;7.60;2.27;;;4.30;99.90;;;;;;4984928;28;20189;-53
2021/03/14 02:30:41;;;;;;;4.07;1.97;;;4.30;99.90;;;;;;5000694;28;20181;-49
2021/03/14 02:33:07;;;;;;;6.47;2.53;;;4.30;99.90;;;;;;4999054;28;20189;-52
2021/03/14 02:35:33;;;;;;;7.60;2.63;;;4.30;99.90;;;;;;4994679;28;20720;-49
2021/03/14 02:37:59;;;;;;;5.57;2.63;;;4.30;99.90;;;;;;5003118;28;20657;-48
2021/03/14 02:40:25;;;;;;;7.13;2.30;;;4.30;99.90;;;;;;4994800;28;20207;-52
2021/03/14 02:42:52;;;;;;;5.73;2.30;;;4.30;99.90;;;;;;4986220;28;20920;-53
2021/03/14 02:45:18;;;;;;;9.70;2.90;;;4.40;99.90;;;;;;5005854;28;20577;-51
2021/03/14 02:47:44;;;;;;;6.30;2.37;;;4.40;99.90;;;;;;4999534;28;20209;-50
2021/03/14 02:50:15;;;;;;;6.73;2.53;;;4.40;99.90;;;;;;5010584;28;20191;-53
2021/03/14 02:52:41;;;;;;;10.50;2.57;;;4.40;99.90;;;;;;4998804;28;20208;-50
2021/03/14 02:55:09;;;;;;;5.47;3.17;;;4.40;99.90;;;;;;5009050;28;20218;-52
2021/03/14 02:57:35;;;;;;;7.07;2.17;;;4.40;99.90;;;;;;4992047;28;20262;-50
2021/03/14 03:00:01;;;;;;;10.30;2.43;;;4.40;99.90;;;;;;5001913;28;20781;-51
2021/03/14 03:02:27;;;;;;;5.37;1.40;;;4.40;99.90;;;;;;5007071;28;20272;-57
2021/03/14 03:04:53;;;;;;;8.10;2.70;;;4.40;99.90;;;;;;5001699;28;20204;-53
2021/03/14 03:07:20;;;;;;;5.70;2.60;;;4.40;99.90;;;;;;5005566;28;20200;-53
2021/03/14 03:09:48;;;;;;;8.00;2.23;;;4.40;99.90;;;;;;5004267;28;20177;-48
2021/03/14 03:12:16;;;;;;;4.80;2.00;;;4.40;99.90;;;;;;5006928;28;20602;-56
2021/03/14 03:14:43;;;;;;;6.87;2.30;;;4.40;99.90;;;;;;4984911;28;20271;-50
2021/03/14 03:17:10;;;;;;;5.70;2.13;;;4.40;99.90;;;;;;4996721;28;20553;-48
2021/03/14 03:19:37;;;;;;;7.33;2.83;;;4.40;99.90;;;;;;4983338;28;20181;-50
2021/03/14 03:22:03;;;;;;;8.50;2.70;;;4.40;99.90;;;;;;5009724;28;20180;-51
2021/03/14 03:24:29;;;;;;;5.77;2.17;;;4.40;99.90;;;;;;5002636;28;20177;-50
2021/03/14 03:26:54;;;;;;;5.23;2.20;;;4.40;99.90;;;;;;5008001;28;20673;-47
2021/03/14 03:29:20;;;;;;;8.60;2.93;;;4.40;99.90;;;;;;4996504;28;20635;-55
2021/03/14 03:31:46;;;;;;;5.83;2.77;;;4.40;99.90;;;;;;4990012;28;20197;-53
2021/03/14 03:34:13;;;;;;;6.00;2.60;;;4.30;99.90;;;;;;4987507;28;20602;-54
2021/03/14 03:36:39;;;;;;;9.17;2.70;;;4.30;99.90;;;;;;4979968;28;20862;-50
2021/03/14 03:39:08;;;;;;;5.27;2.40;;;4.30;99.90;;;;;;4988008;28;20180;-53
2021/03/14 03:41:39;;;;;;;7.60;3.03;;;4.20;99.90;;;;;;5003745;28;20176;-52
2021/03/14 03:44:06;;;;;;;6.30;2.57;;;4.20;99.90;;;;;;5008128;28;20192;-50
2021/03/14 03:46:33;;;;;;;4.63;2.63;;;4.20;99.90;;;;;;4977586;28;20225;-53
2021/03/14 03:48:59;;;;;;;5.07;2.90;;;4.30;99.90;;;;;;5005837;28;20232;-51
2021/03/14 03:51:29;;;;;;;5.70;2.23;;;4.30;99.90;;;;;;4998113;28;20216;-53
2021/03/14 03:53:59;;;;;;;6.30;3.43;;;4.30;99.90;;;;;;5001043;28;20343;-52
2021/03/14 03:56:27;;;;;;;5.43;3.17;;;4.30;99.90;;;;;;5003731;28;20697;-53
2021/03/14 03:58:53;;;;;;;6.60;3.20;;;4.40;99.90;;;;;;5002406;28;20196;-50
2021/03/14 04:01:20;;;;;;;5.13;2.90;;;4.40;99.90;;;;;;4979444;28;20192;-51
2021/03/14 04:03:47;;;;;;;8.07;2.73;;;4.40;99.90;;;;;;4988836;28;20207;-52
2021/03/14 04:06:14;;;;;;;8.63;3.03;;;4.50;99.90;;;;;;5000767;28;20201;-53
2021/03/14 04:08:43;;;;;;;6.10;2.70;;;4.50;99.90;;;;;;4998109;28;20452;-54
2021/03/14 04:11:13;;;;;;;8.30;2.50;;;4.50;99.90;;;;;;5006690;28;20177;-51
2021/03/14 04:13:41;;;;;;;6.00;2.73;;;4.60;99.90;;;;;;4999343;28;20165;-49
2021/03/14 04:16:07;;;;;;;10.63;2.20;;;4.60;99.90;;;;;;4978434;28;20208;-49
2021/03/14 04:18:34;;;;;;;7.17;2.67;;;4.70;99.90;;;;;;4994187;28;20790;-53
2021/03/14 04:21:03;;;;;;;8.77;2.90;;;4.70;99.90;;;;;;4986384;28;20665;-50
2021/03/14 04:23:30;;;;;;;5.63;1.47;;;4.70;99.90;;;;;;4997398;28;20266;-56
2021/03/14 04:25:57;;;;;;;7.90;2.53;;;4.80;99.90;;;;;;5008600;28;20276;-53
2021/03/14 04:28:27;;;;;;;5.13;2.00;;;4.80;99.90;;;;;;5002650;28;20189;-52
2021/03/14 04:30:53;;;;;;;8.07;2.27;;;4.80;99.90;;;;;;4997518;28;20192;-51
2021/03/14 04:33:20;;;;;;;8.53;2.50;;;4.80;99.90;;;;;;4981409;28;20677;-52
2021/03/14 04:35:46;;;;;;;7.97;2.47;;;4.90;99.90;;;;;;4994401;28;20212;-52
2021/03/14 04:38:13;;;;;;;6.93;2.27;;;4.90;99.90;;;;;;4999586;28;20276;-48
2021/03/14 04:40:40;;;;;;;8.43;2.50;;;4.80;99.90;;;;;;5001468;28;20177;-48
2021/03/14 04:43:06;;;;;;;5.43;2.80;;;4.90;99.90;;;;;;5005509;28;20196;-51
2021/03/14 04:45:34;;;;;;;7.37;2.10;;;4.80;99.90;;;;;;5001555;28;20184;-54
2021/03/14 04:48:00;;;;;;;8.33;2.53;;;4.90;99.90;;;;;;4988746;28;20193;-51
2021/03/14 04:50:27;;;;;;;3.50;1.67;;;4.90;99.90;;;;;;4993989;28;20192;-55
2021/03/14 04:52:56;;;;;;;7.17;2.03;;;5.00;99.90;;;;;;4995993;28;20200;-48
2021/03/14 04:55:22;;;;;;;3.13;2.13;;;5.00;99.90;;;;;;4995306;28;20222;-52
2021/03/14 04:57:49;;;;;;;6.73;2.40;;;5.00;99.90;;;;;;5001818;28;20200;-52
2021/03/14 05:00:18;;;;;;;6.60;2.33;;;5.00;99.90;;;;;;5000389;28;20223;-53
2021/03/14 05:02:47;;;;;;;5.60;2.20;;;5.00;99.90;;;;;;4984651;28;20192;-49
2021/03/14 05:05:13;;;;;;;13.30;3.60;;;5.00;99.90;;;;;;4987365;28;20661;-50
2021/03/14 05:07:45;;;;;;;9.13;2.93;;;5.00;99.90;;;;;;4988944;28;20360;-52
2021/03/14 05:10:22;;;;;;;7.53;2.50;;;5.10;99.90;;;;;;4998314;28;20532;-53
2021/03/14 05:12:49;;;;;;;6.30;2.00;;;5.00;99.90;;;;;;5003256;28;20806;-49
2021/03/14 05:15:17;;;;;;;5.07;1.97;;;5.00;99.90;;;;;;4996059;28;20262;-54
2021/03/14 05:17:44;;;;;;;7.10;2.70;;;5.00;99.90;;;;;;5002432;28;20276;-48
2021/03/14 05:20:16;;;;;;;8.97;2.27;;;5.00;99.90;;;;;;4987938;28;20200;-48
2021/03/14 05:22:43;;;;;;;6.30;2.30;;;5.00;99.90;;;;;;5000081;28;20177;-48
2021/03/14 05:25:10;;;;;;;7.20;2.47;;;5.00;99.90;;;;;;5001171;28;20203;-53
2021/03/14 05:27:37;;;;;;;11.07;2.90;;;5.00;99.90;;;;;;5001811;28;20210;-53
2021/03/14 05:30:06;;;;;;;11.00;2.47;;;4.90;99.90;;;;;;4998889;28;20196;-50
2021/03/14 05:32:32;;;;;;;6.30;2.30;;;4.90;99.90;;;;;;5000138;28;20242;-53
2021/03/14 05:34:58;;;;;;;5.87;2.40;;;4.90;99.90;;;;;;4979119;28;20209;-48
2021/03/14 05:37:24;;;;;;;11.30;2.27;;;4.90;99.90;;;;;;4993055;28;20743;-50
2021/03/14 05:39:50;;;;;;;6.53;2.27;;;4.90;99.90;;;;;;4996935;28;20184;-48
2021/03/14 05:42:17;;;;;;;7.53;2.40;;;5.00;99.90;;;;;;5001609;28;20215;-53
2021/03/14 05:44:45;;;;;;;5.57;2.00;;;5.00;99.90;;;;;;4994719;28;20208;-47
2021/03/14 05:47:11;;;;;;;6.87;2.07;;;5.00;99.90;;;;;;5003939;28;20207;-53
2021/03/14 05:49:36;;;;;;;9.60;1.93;;;5.00;99.90;;;;;;4985988;28;20291;-54
2021/03/14 05:52:05;;;;;;;7.03;1.90;;;5.00;99.90;;;;;;4989297;28;20216;-50
2021/03/14 05:54:31;;;;;;;7.03;2.50;;;5.00;99.90;;;;;;4996002;28;20216;-53
2021/03/14 05:57:00;;;;;;;6.50;2.03;;;5.10;99.90;;;;;;5007233;28;20212;-48
2021/03/14 05:59:25;;;;;;;5.97;2.63;;;5.10;99.90;;;;;;4996254;28;20185;-55
2021/03/14 06:01:52;;;;;;;10.87;2.50;;;5.10;99.90;;;;;;5003367;28;20173;-50
2021/03/14 06:04:19;;;;;;;6.00;2.17;;;5.10;99.90;;;;;;4992009;28;20212;-50
2021/03/14 06:06:46;;;;;;;7.90;2.80;;;5.10;99.90;;;;;;4985110;28;20220;-51
2021/03/14 06:09:12;;;;;;;12.63;2.50;;;5.20;99.90;;;;;;4991042;28;20207;-53
2021/03/14 06:11:38;;;;;;;10.80;2.20;;;5.20;99.90;;;;;;4977814;28;20233;-53
2021/03/14 06:14:05;;;;;;;11.73;2.60;;;5.20;99.90;;;;;;4989206;28;20264;-51
2021/03/14 06:16:31;;;;;;;10.83;3.37;;;5.20;99.90;;;;;;4999268;28;20756;-48
2021/03/14 06:18:57;;;;;;;12.33;2.97;;;5.20;99.90;;;;;;5002456;28;20219;-51
2021/03/14 06:21:29;;;;;;;13.70;2.77;;;5.20;99.90;;;;;;4986883;28;20193;-53
2021/03/14 06:24:01;;;;;;;13.97;3.30;;;5.20;99.90;;;;;;4992726;28;20267;-52
2021/03/14 06:26:47;;;;;;;7.97;2.70;;;5.20;99.90;;;;;;4995110;28;20220;-53
2021/03/14 06:29:18;;;;;;;7.23;2.80;;;5.20;99.90;;;;;;4998280;28;20203;-53
2021/03/14 06:31:56;;;;;;;6.13;2.57;;;5.30;99.90;;;;;;4984092;28;20205;-51
2021/03/14 06:34:32;;;;;;;8.63;2.40;;;5.30;99.90;;;;;;4986505;28;20276;-54
2021/03/14 06:37:19;;;;;;;7.23;2.17;;;5.30;99.90;;;;;;4980514;28;20780;-53
2021/03/14 06:39:49;;;;;;;12.50;2.33;;;5.30;99.90;;;;;;4995173;28;20193;-49
2021/03/14 06:42:33;;;;;;;8.40;2.87;;;5.30;99.90;;;;;;4998393;28;20224;-55
2021/03/14 06:45:03;;;;;;;7.90;2.97;;;5.30;99.90;;;;;;5005888;28;20206;-50
2021/03/14 06:47:42;;;;;;;12.07;3.07;;;5.30;99.90;;;;;;5002392;28;20223;-56
2021/03/14 06:50:09;;;;;;;14.07;3.90;;;5.40;99.90;;;;;;5000264;28;20611;-51
2021/03/14 06:52:35;;;;;;;12.23;3.40;;;5.40;99.90;;;;;;4979735;28;20189;-48
2021/03/14 06:55:01;;;;;;;11.90;3.70;;;5.40;99.90;;;;;;4990391;28;20796;-49
2021/03/14 06:57:27;;;;;;;9.17;2.87;;;5.40;99.90;;;;;;4994090;28;20200;-51
2021/03/14 07:00:00;;;;;;;15.20;3.93;;;5.50;99.90;;;;;;5000069;28;20187;-54
2021/03/14 07:02:28;;;;;;;13.70;3.03;;;5.50;99.90;;;;;;4980470;28;20182;-53
2021/03/14 07:05:01;;;;;;;10.13;3.17;;;5.50;99.90;;;;;;4983092;28;20272;-49
2021/03/14 07:07:30;;;;;;;13.90;4.00;;;5.50;99.90;;;;;;4980312;28;20696;-52
2021/03/14 07:10:00;;;;;;;12.00;2.77;;;5.50;99.90;;;;;;4991113;28;20189;-49
2021/03/14 07:12:35;;;;;;;11.77;3.10;;;5.50;99.90;;;;;;4996383;28;20212;-48
2021/03/14 07:15:11;;;;;;;8.83;3.47;;;5.60;99.90;;;;;;4993402;28;20200;-50
2021/03/14 07:17:37;;;;;;;8.60;2.87;;;5.70;99.90;;;;;;4999588;28;20254;-48
2021/03/14 07:20:08;;;;;;;8.77;3.07;;;5.70;99.90;;;;;;4997171;28;20196;-51
2021/03/14 07:22:33;;;;;;;15.63;3.40;;;5.70;99.90;;;;;;4984938;28;20193;-47
2021/03/14 07:25:00;;;;;;;11.13;3.00;;;5.60;99.90;;;;;;4994420;28;20247;-49
2021/03/14 07:27:30;;;;;;;12.03;3.17;;;5.60;99.90;;;;;;5000311;28;20241;-55
2021/03/14 07:29:58;;;;;;;14.73;3.07;;;5.60;99.90;;;;;;4993513;28;20201;-52
2021/03/14 07:32:25;;;;;;;13.73;3.53;;;5.60;99.90;;;;;;5002401;28;20197;-51
2021/03/14 07:34:51;;;;;;;12.10;3.40;;;5.70;99.90;;;;;;5005098;28;20315;-50
2021/03/14 07:37:17;;;;;;;17.93;2.73;;;5.60;99.90;;;;;;5004960;28;20199;-50
2021/03/14 07:39:46;;;;;;;13.87;2.83;;;5.70;99.90;;;;;;4985897;28;20235;-54
2021/03/14 07:42:12;;;;;;;13.57;2.70;;;5.70;99.90;;;;;;4996242;28;20192;-50
2021/03/14 07:44:39;;;;;;;17.60;3.53;;;5.70;99.90;;;;;;4997033;28;20196;-49
2021/03/14 07:47:05;;;;;;;15.83;3.00;;;5.70;99.90;;;;;;5006182;28;20220;-51
2021/03/14 07:49:31;;;;;;;18.33;2.77;;;5.80;99.90;;;;;;4996512;28;20309;-52
2021/03/14 07:52:01;;;;;;;9.50;3.00;;;5.70;99.90;;;;;;5006327;28;20181;-49
2021/03/14 07:54:41;;;;;;;10.97;2.87;;;5.80;99.90;;;;;;4991286;28;20189;-54
2021/03/14 07:57:09;;;;;;;12.87;3.10;;;5.80;99.90;;;;;;4998757;28;20225;-49
2021/03/14 07:59:35;;;;;;;14.83;3.60;;;5.70;99.90;;;;;;4995775;28;20181;-52
2021/03/14 08:02:24;;;;;;;12.90;2.77;;;5.70;99.90;;;;;;5000371;28;20669;-52
2021/03/14 08:04:52;;;;;;;16.00;3.40;;;5.80;99.90;;;;;;5005274;28;20234;-48
2021/03/14 08:07:33;;;;;;;8.70;3.00;;;5.80;99.90;;;;;;5004308;28;20559;-51
2021/03/14 08:09:59;;;;;;;11.60;3.43;;;5.80;99.90;;;;;;4986269;28;20197;-52
2021/03/14 08:12:27;;;;;;;9.00;2.83;;;5.90;99.90;;;;;;4988823;28;20193;-52
2021/03/14 08:14:57;;;;;;;16.97;3.20;;;5.90;99.90;;;;;;4986145;28;20216;-50
2021/03/14 08:17:35;;;;;;;10.00;2.77;;;6.00;99.90;;;;;;5006565;28;20197;-56
2021/03/14 08:20:03;;;;;;;10.40;3.33;;;6.00;99.90;;;;;;5005375;28;20215;-53
2021/03/14 08:22:38;;;;;;;8.27;2.63;;;6.10;99.90;;;;;;4999863;28;20189;-52
2021/03/14 08:25:23;;;;;;;12.93;3.93;;;6.10;99.90;;;;;;5001897;28;20188;-50
2021/03/14 08:27:56;;;;;;;9.23;2.37;;;6.10;99.90;;;;;;4993016;28;20880;-49
2021/03/14 08:30:42;;;;;;;13.20;3.47;;;6.10;99.90;;;;;;5007046;28;20181;-49
2021/03/14 08:33:29;;;;;;;13.47;2.70;;;6.20;99.90;;;;;;5005685;28;20308;-52
2021/03/14 08:36:05;;;;;;;10.33;2.73;;;6.20;99.90;;;;;;4988521;28;20674;-50
2021/03/14 08:38:55;;;;;;;12.07;3.03;;;6.30;99.90;;;;;;5000562;28;20180;-50
2021/03/14 08:41:49;;;;;;;14.50;3.00;;;6.30;99.90;;;;;;4971883;28;20220;-56
2021/03/14 08:44:41;;;;;;;12.60;2.83;;;6.20;99.90;;;;;;5000008;28;20268;-53
2021/03/14 08:47:23;;;;;;;11.43;2.77;;;6.40;99.90;;;;;;5001588;28;20271;-55
2021/03/14 08:49:58;;;;;;;9.00;2.30;;;6.20;99.90;;;;;;5007438;28;20188;-51
2021/03/14 08:52:25;;;;;;;9.03;2.77;;;6.30;99.90;;;;;;5003677;28;20275;-54
2021/03/14 08:55:01;;;;;;;8.53;2.27;;;6.50;99.90;;;;;;5002184;28;20775;-52
2021/03/14 08:57:31;;;;;;;14.07;4.47;;;6.40;99.90;;;;;;4999520;28;21027;-51
2021/03/14 09:00:00;;;;;;;7.40;1.83;;;6.50;99.90;;;;;;4990141;28;20170;-50
2021/03/14 09:02:31;;;;;;;12.93;3.00;;;6.50;99.90;;;;;;4990045;28;20551;-55
2021/03/14 09:05:12;;;;;;;8.53;2.43;;;6.40;99.90;;;;;;5001549;28;20231;-51
2021/03/14 09:07:57;;;;;;;7.57;2.70;;;6.60;99.90;;;;;;5021239;28;20284;-47
2021/03/14 09:10:22;;;;;;;10.03;2.23;;;6.40;99.90;;;;;;4995562;28;20192;-52
2021/03/14 09:13:00;;;;;;;10.67;2.73;;;6.60;99.90;;;;;;4991482;28;20193;-53
2021/03/14 09:15:47;;;;;;;8.20;2.03;;;6.70;99.90;;;;;;4999918;28;20204;-53
2021/03/14 09:18:27;;;;;;;7.33;2.00;;;6.70;99.90;;;;;;4984048;28;20205;-51
2021/03/14 09:21:00;;;;;;;9.43;1.73;;;6.70;99.90;;;;;;5003206;28;20173;-47
2021/03/14 09:23:40;;;;;;;7.07;2.17;;;6.70;99.90;;;;;;4999355;28;20173;-54
2021/03/14 09:26:06;;;;;;;8.63;1.87;;;6.80;99.90;;;;;;4978836;28;20556;-49
2021/03/14 09:28:43;;;;;;;11.67;2.10;;;6.80;99.90;;;;;;4989518;28;20193;-51
2021/03/14 09:31:12;;;;;;;6.97;2.10;;;7.00;99.90;;;;;;4979679;28;20315;-50
2021/03/14 09:33:43;;;;;;;4.97;1.47;;;7.10;99.90;;;;;;4988558;28;20287;-47
2021/03/14 09:36:15;;;;;;;8.73;1.63;;;7.10;99.90;;;;;;4988174;28;20212;-51
2021/03/14 09:38:57;;;;;;;8.73;1.60;;;7.10;99.90;;;;;;4999121;28;20205;-52
2021/03/14 09:41:44;;;;;;;5.40;1.20;;;7.10;99.90;;;;;;4988607;28;20578;-50
2021/03/14 09:44:21;;;;;;;8.03;1.47;;;7.20;99.90;;;;;;5014106;28;20197;-48
2021/03/14 09:46:57;;;;;;;9.10;1.80;;;7.20;99.90;;;;;;5020742;28;20200;-55
2021/03/14 09:49:39;;;;;;;2.80;1.00;;;7.20;99.90;;;;;;5000865;28;20196;-47
2021/03/14 09:52:09;;;;;;;3.50;1.17;;;7.20;99.90;;;;;;5002155;28;20902;-52
2021/03/14 09:54:35;;;;;;;3.87;1.40;;;7.30;99.90;;;;;;4999063;28;20188;-53
2021/03/14 09:57:01;;;;;;;5.47;1.07;;;7.30;99.90;;;;;;4998526;28;20209;-50
2021/03/14 09:59:41;;;;;;;6.30;1.53;;;7.40;99.90;;;;;;4993026;28;20649;-50
2021/03/14 10:02:26;;;;;;;7.07;1.10;;;7.40;99.90;;;;;;5016540;28;20786;-47
2021/03/14 10:05:18;;;;;;;8.30;1.30;;;7.40;99.90;;;;;;4991127;28;20882;-49
2021/03/14 10:07:49;;;;;;;5.73;1.50;;;7.50;99.90;;;;;;5002957;28;20751;-48
2021/03/14 10:10:15;;;;;;;5.07;1.10;;;7.50;99.90;;;;;;4998174;28;20231;-53
2021/03/14 10:12:51;;;;;;;5.80;1.37;;;7.50;99.90;;;;;;4995331;28;20200;-47
2021/03/14 10:15:17;;;;;;;8.60;1.23;;;7.60;99.90;;;;;;5002884;28;20204;-50
2021/03/14 10:17:48;;;;;;;7.53;1.50;;;7.60;99.90;;;;;;4993014;28;20241;-53
2021/03/14 10:20:14;;;;;;;10.57;1.80;;;7.60;99.90;;;;;;4993691;28;20189;-48
2021/03/14 10:22:40;;;;;;;9.73;1.60;;;7.70;99.90;;;;;;5001299;28;20196;-49
2021/03/14 10:25:37;;;;;;;9.13;1.23;;;7.90;99.90;;;;;;5008755;28;20287;-49
2021/03/14 10:28:15;;;;;;;10.80;1.40;;;8.10;99.90;;;;;;4984764;28;20180;-52
2021/03/14 10:31:03;;;;;;;6.93;1.10;;;8.10;99.90;;;;;;4989806;28;20181;-55
2021/03/14 10:33:42;;;;;;;5.57;1.13;;;8.00;99.90;;;;;;5004570;28;20564;-52
2021/03/14 10:36:13;;;;;;;8.57;2.23;;;8.00;99.90;;;;;;4988439;28;20266;-51
2021/03/14 10:38:48;;;;;;;8.80;2.10;;;7.90;99.90;;;;;;5019982;28;20173;-52
2021/03/14 10:41:23;;;;;;;6.03;1.50;;;7.90;99.90;;;;;;4997018;28;20176;-52
2021/03/14 10:44:01;;;;;;;5.07;1.30;;;8.00;99.90;;;;;;4986040;28;20270;-53
2021/03/14 10:46:46;;;;;;;7.50;1.70;;;8.10;99.90;;;;;;4994858;28;20263;-52
2021/03/14 10:49:15;;;;;;;11.50;1.83;;;8.10;99.90;;;;;;4999780;28;20230;-54
2021/03/14 10:51:43;;;;;;;5.50;1.13;;;8.20;99.90;;;;;;5013316;28;20242;-49
2021/03/14 10:54:16;;;;;;;4.40;1.57;;;8.20;99.90;;;;;;4998905;28;20954;-48
2021/03/14 10:56:50;;;;;;;4.53;1.20;;;8.20;99.90;;;;;;5002950;28;20232;-52
2021/03/14 10:59:22;;;;;;;5.97;1.20;;;8.00;99.90;;;;;;4981264;28;20345;-50
2021/03/14 11:02:22;;;;;;;5.20;1.30;;;7.90;99.90;;;;;;4990404;28;20217;-51
2021/03/14 11:04:59;;;;;;;5.97;1.07;;;7.70;99.90;;;;;;5015735;28;20342;-50
2021/03/14 11:07:34;;;;;;;3.53;1.00;;;7.60;99.90;;;;;;5000001;28;20237;-53
2021/03/14 11:10:17;;;;;;;8.10;1.50;;;7.60;99.90;;;;;;4983043;28;20165;-54
2021/03/14 11:12:48;;;;;;;4.97;1.33;;;7.70;99.90;;;;;;5002921;28;20177;-50
2021/03/14 11:15:25;;;;;;;5.20;1.20;;;7.80;99.90;;;;;;4996838;28;20201;-53
2021/03/14 11:18:03;;;;;;;8.67;1.37;;;7.80;99.90;;;;;;4990224;28;20187;-50
2021/03/14 11:20:50;;;;;;;7.63;1.50;;;7.80;99.90;;;;;;5006024;28;20548;-50
2021/03/14 11:23:17;;;;;;;9.63;1.43;;;7.90;99.90;;;;;;5013885;28;20190;-53
2021/03/14 11:25:43;;;;;;;5.40;1.03;;;7.90;99.90;;;;;;5004553;28;20195;-52
2021/03/14 11:28:11;;;;;;;5.73;1.33;;;7.90;99.90;;;;;;5001820;28;20252;-52
2021/03/14 11:30:41;;;;;;;4.77;1.40;;;7.90;99.90;;;;;;4985806;28;20247;-51
2021/03/14 11:33:07;;;;;;;4.13;1.30;;;8.00;99.90;;;;;;4991556;28;20200;-50
2021/03/14 11:35:38;;;;;;;4.40;1.37;;;8.10;99.90;;;;;;5017179;28;20850;-51
2021/03/14 11:38:22;;;;;;;3.67;1.10;;;8.20;99.90;;;;;;5000100;28;20282;-54
2021/03/14 11:41:20;;;;;;;6.10;1.50;;;8.50;99.90;;;;;;5000849;28;20255;-49
2021/03/14 11:44:08;;;;;;;7.03;1.77;;;8.50;99.90;;;;;;4997586;28;20262;-47
2021/03/14 11:46:34;;;;;;;5.87;1.93;;;8.60;99.90;;;;;;4994852;28;20694;-48
2021/03/14 11:49:08;;;;;;;6.17;1.40;;;8.60;99.90;;;;;;4985167;28;20192;-49
2021/03/14 11:51:34;;;;;;;7.47;1.23;;;8.60;99.90;;;;;;5002343;28;20272;-48
2021/03/14 11:54:12;;;;;;;5.40;1.40;;;8.60;99.90;;;;;;4997107;28;20319;-50
2021/03/14 11:56:38;;;;;;;5.07;1.50;;;8.70;99.90;;;;;;5021467;28;20208;-49
2021/03/14 11:59:04;;;;;;;4.47;1.30;;;8.70;99.90;;;;;;5017673;28;20230;-52
2021/03/14 12:01:43;;;;;;;5.73;1.33;;;8.70;99.90;;;;;;5002527;28;20198;-50
2021/03/14 12:04:11;;;;;;;3.43;0.80;;;8.60;99.90;;;;;;5006444;28;23042;-52
2021/03/14 12:06:37;;;;;;;5.83;1.13;;;8.40;99.90;;;;;;5018954;28;20205;-50
2021/03/14 12:09:06;;;;;;;4.73;1.40;;;8.30;99.90;;;;;;5001164;28;20181;-49
2021/03/14 12:11:36;;;;;;;8.07;1.50;;;8.20;99.90;;;;;;5000054;28;20195;-50
2021/03/14 12:14:03;;;;;;;6.50;1.27;;;8.20;99.90;;;;;;4990705;28;20227;-54
2021/03/14 12:16:48;;;;;;;3.30;1.20;;;8.10;99.90;;;;;;4985723;28;20212;-54
2021/03/14 12:19:16;;;;;;;5.30;1.20;;;7.90;99.90;;;;;;4982193;28;20329;-52
2021/03/14 12:21:42;;;;;;;8.70;1.80;;;7.80;99.90;;;;;;5002843;28;20181;-51
2021/03/14 12:24:09;;;;;;;5.47;1.87;;;7.80;99.90;;;;;;4995661;28;20189;-49
2021/03/14 12:26:37;;;;;;;6.23;1.80;;;7.70;99.90;;;;;;5016720;28;20208;-53
2021/03/14 12:29:13;;;;;;;6.93;1.13;;;7.70;99.90;;;;;;5000760;28;20168;-51
2021/03/14 12:31:50;;;;;;;5.33;1.27;;;7.70;99.90;;;;;;5016139;28;20549;-51
2021/03/14 12:34:15;;;;;;;5.37;1.57;;;7.70;99.90;;;;;;5002370;28;20200;-52
2021/03/14 12:36:44;;;;;;;5.63;1.37;;;7.60;99.90;;;;;;5015339;28;20734;-51
2021/03/14 12:39:20;;;;;;;4.37;1.20;;;7.60;99.90;;;;;;5002232;28;20161;-53
2021/03/14 12:41:45;;;;;;;6.00;1.40;;;7.60;99.90;;;;;;5011816;28;20195;-52
2021/03/14 12:44:11;;;;;;;6.27;1.83;;;7.60;99.90;;;;;;5011437;28;20565;-53
2021/03/14 12:46:39;;;;;;;7.17;1.50;;;7.60;99.90;;;;;;5018121;28;20228;-52
2021/03/14 12:49:05;;;;;;;7.73;1.57;;;7.60;99.90;;;;;;4982463;28;20187;-53
2021/03/14 12:51:31;;;;;;;5.13;1.60;;;7.60;99.90;;;;;;4992270;28;20181;-52
2021/03/14 12:53:59;;;;;;;7.30;1.60;;;7.70;99.90;;;;;;4987516;28;20193;-51
2021/03/14 12:56:24;;;;;;;8.57;1.30;;;7.70;99.90;;;;;;5003857;28;20220;-52
2021/03/14 12:59:00;;;;;;;7.30;1.13;;;7.80;99.90;;;;;;4996806;28;20183;-53
2021/03/14 13:01:26;;;;;;;6.17;1.60;;;7.80;99.90;;;;;;5001032;28;20192;-53
2021/03/14 13:03:52;;;;;;;4.67;1.07;;;7.80;99.90;;;;;;4998045;28;20183;-53
2021/03/14 13:06:18;;;;;;;6.00;1.23;;;7.80;99.90;;;;;;4985007;28;20204;-53
2021/03/14 13:08:44;;;;;;;6.83;1.13;;;7.80;99.90;;;;;;4997049;28;20203;-50
2021/03/14 13:11:10;;;;;;;5.97;1.40;;;7.90;99.90;;;;;;4993708;28;20592;-49